CheckWX is a tool to help pilots better visualize weather data.  It is not intended as a substitute for an official pre-flight weather briefing.

13:40:43 UTC

BIKF METAR
Keflavik International Airport
Reykjavík, Iceland
Current

41 mins ago

BIKF 201300Z 02011KT 9999 FEW030 SCT230 15/09 Q1003
Observed
Jul-20 @ 13:00 UTC
Wind
  • 020° at 11 KTS
Visibility
10,000+ meters
Flight Rules
VFR
Cloud Levels
  • Few at 3,000' AGL
  • Scattered at 23,000' AGL
Temperature
15°C / 59°F
Dewpoint
C / 48°F
Humidity
68%
Altimeter
29.62" Hg
Pressure
1002.92 hPa
Previous

1 hour ago

BIKF 201230Z 03010KT 360V060 9999 FEW030 SCT190 15/09 Q1003
Observed
Jul-20 @ 12:30 UTC
Wind
  • 030° at 10 KTS
Visibility
10,000+ meters
Flight Rules
VFR
Cloud Levels
  • Few at 3,000' AGL
  • Scattered at 19,000' AGL
Temperature
15°C / 59°F
Dewpoint
C / 48°F
Humidity
68%
Altimeter
29.62" Hg
Pressure
1002.92 hPa
Previous

2 hours ago

BIKF 201200Z 03009KT 9999 FEW030 SCT180 15/09 Q1003
Observed
Jul-20 @ 12:00 UTC
Wind
  • 030° at 9 KTS
Visibility
10,000+ meters
Flight Rules
VFR
Cloud Levels
  • Few at 3,000' AGL
  • Scattered at 18,000' AGL
Temperature
15°C / 59°F
Dewpoint
C / 48°F
Humidity
68%
Altimeter
29.62" Hg
Pressure
1002.92 hPa